Time;durP1;ratioP1;P1;durP2;ratioP2;P2;SDS_P1;SDS_P2;PMS_P1;PMS_P2;Temp;Humidity;BMP_temperature;BMP_pressure;BME280_temperature;BME280_humidity;BME280_pressure;Samples;Min_cycle;Max_cycle;Signal;HPM_P1;HPM_P2
2022/04/02 00:01:25;;;;;;;3.08;0.98;;;;;;;-0.77;100.00;99793.66;5083047;28;20444;-86
2022/04/02 00:03:50;;;;;;;4.60;1.23;;;;;;;-0.75;100.00;99791.06;5084382;28;20050;-86
2022/04/02 00:06:16;;;;;;;3.90;1.48;;;;;;;-0.85;100.00;99796.19;5082201;28;20059;-85
2022/04/02 00:08:41;;;;;;;5.40;1.45;;;;;;;-0.90;100.00;99796.16;5077363;28;20427;-84
2022/04/02 00:11:07;;;;;;;3.83;1.42;;;;;;;-0.79;100.00;99795.38;5075354;28;20032;-85
2022/04/02 00:13:33;;;;;;;4.95;1.55;;;;;;;-0.84;100.00;99797.09;5077523;28;20024;-84
2022/04/02 00:15:59;;;;;;;4.78;1.50;;;;;;;-0.93;100.00;99805.75;5076779;28;20024;-84
2022/04/02 00:18:25;;;;;;;4.63;1.70;;;;;;;-0.96;100.00;99795.25;5078843;28;20397;-85
2022/04/02 00:20:50;;;;;;;3.90;1.40;;;;;;;-0.92;100.00;99799.63;5079177;28;20097;-85
2022/04/02 00:26:01;;;;;;;;;;;;;;;-0.91;100.00;99796.16;5085353;28;20031;-85
2022/04/02 00:28:27;;;;;;;3.80;1.30;;;;;;;-0.93;100.00;99797.91;5081299;28;19908;-85
2022/04/02 00:30:52;;;;;;;5.13;1.42;;;;;;;-0.87;100.00;99792.69;5083226;28;20028;-85
2022/04/02 00:33:17;;;;;;;3.15;1.67;;;;;;;-0.85;100.00;99798.81;5082120;28;20055;-85
2022/04/02 00:35:42;;;;;;;4.40;1.52;;;;;;;-0.86;100.00;99799.72;5081661;28;20028;-85
2022/04/02 00:38:08;;;;;;;3.55;1.60;;;;;;;-0.83;100.00;99794.50;5082369;28;20044;-86
2022/04/02 00:40:34;;;;;;;5.43;1.88;;;;;;;-0.90;100.00;99792.66;5081831;28;20021;-84
2022/04/02 00:42:59;;;;;;;3.85;1.75;;;;;;;-0.86;100.00;99799.72;5078487;28;20054;-86
2022/04/02 00:45:24;;;;;;;2.97;1.42;;;;;;;-0.79;100.00;99796.28;5075290;28;20024;-84
2022/04/02 00:47:50;;;;;;;3.05;1.45;;;;;;;-0.83;100.00;99799.75;5076786;28;20432;-85
2022/04/02 00:50:16;;;;;;;2.80;1.33;;;;;;;-0.84;100.00;99803.22;5078006;28;20021;-85
2022/04/02 00:52:42;;;;;;;4.65;1.58;;;;;;;-0.90;100.00;99797.91;5078470;28;20020;-86
2022/04/02 00:55:07;;;;;;;2.90;1.58;;;;;;;-0.93;100.00;99803.16;5078806;28;20036;-86
2022/04/02 00:57:34;;;;;;;3.17;1.38;;;;;;;-0.92;100.00;99804.88;5078043;28;20025;-86
2022/04/02 01:00:01;;;;;;;2.47;1.40;;;;;;;-0.95;99.69;99796.97;5079407;28;20024;-84
2022/04/02 01:02:26;;;;;;;3.17;1.52;;;;;;;-0.97;100.00;99804.84;5078961;28;20465;-85
2022/04/02 01:04:54;;;;;;;6.57;1.65;;;;;;;-0.99;100.00;99800.44;5081916;28;20166;-86
2022/04/02 01:07:19;;;;;;;2.20;1.20;;;;;;;-0.95;99.63;99799.59;5081442;28;20481;-85
2022/04/02 01:09:45;;;;;;;6.20;1.33;;;;;;;-1.02;100.00;99807.44;5081690;28;20035;-84
2022/04/02 01:12:11;;;;;;;5.45;1.25;;;;;;;-1.06;100.00;99808.28;5080076;28;20074;-85
2022/04/02 01:14:37;;;;;;;5.43;1.65;;;;;;;-0.99;99.94;99813.56;5079731;28;20388;-87
2022/04/02 01:17:04;;;;;;;2.38;1.10;;;;;;;-1.05;99.19;99820.50;5081438;28;20051;-85
2022/04/02 01:19:29;;;;;;;5.85;1.40;;;;;;;-1.06;99.11;99816.13;5075266;28;20039;-84
2022/04/02 01:21:55;;;;;;;2.90;1.20;;;;;;;-1.08;98.05;99823.06;5074075;28;20013;-86
2022/04/02 01:24:20;;;;;;;3.53;1.50;;;;;;;-1.09;99.44;99829.19;5075670;28;20025;-83
2022/04/02 01:26:46;;;;;;;5.47;1.27;;;;;;;-1.05;97.79;99825.72;5076058;28;20024;-86
2022/04/02 01:29:11;;;;;;;2.63;1.08;;;;;;;-1.14;99.26;99830.88;5077028;28;20078;-85
2022/04/02 01:31:37;;;;;;;4.05;1.20;;;;;;;-1.18;98.24;99823.84;5077671;28;20028;-84
2022/04/02 01:34:02;;;;;;;2.53;1.15;;;;;;;-1.10;98.54;99829.16;5078175;28;20032;-85
2022/04/02 01:36:28;;;;;;;2.47;1.20;;;;;;;-1.14;96.85;99829.16;5078074;28;20043;-84
2022/04/02 01:38:53;;;;;;;2.80;1.30;;;;;;;-1.14;98.20;99826.53;5078579;28;20538;-85
2022/04/02 01:41:19;;;;;;;6.70;1.20;;;;;;;-1.24;98.72;99830.78;5077643;28;20024;-85
2022/04/02 01:43:45;;;;;;;3.47;1.25;;;;;;;-1.26;96.50;99832.50;5079053;28;20025;-86
2022/04/02 01:46:11;;;;;;;2.08;1.10;;;;;;;-1.24;97.73;99830.78;5082120;28;20114;-87
2022/04/02 01:48:37;;;;;;;3.75;1.90;;;;;;;-1.30;97.95;99840.31;5086386;28;20031;-86
2022/04/02 01:51:03;;;;;;;6.95;1.70;;;;;;;-1.24;97.76;99836.00;5084584;28;20020;-87
2022/04/02 01:53:29;;;;;;;4.13;1.20;;;;;;;-1.26;97.54;99839.47;5081669;28;20032;-85
2022/04/02 01:55:55;;;;;;;2.42;1.13;;;;;;;-1.26;96.62;99842.97;5078392;28;20382;-85
2022/04/02 01:58:20;;;;;;;5.97;1.75;;;;;;;-1.24;98.19;99841.25;5079280;28;20050;-85
2022/04/02 02:00:49;;;;;;;6.10;2.05;;;;;;;-1.27;95.82;99841.25;5080531;28;20083;-84
2022/04/02 02:03:15;;;;;;;3.40;1.52;;;;;;;-1.26;97.20;99845.59;5081523;28;20489;-85
2022/04/02 02:05:41;;;;;;;3.10;1.42;;;;;;;-1.27;95.36;99841.25;5083068;28;20048;-86
2022/04/02 02:08:06;;;;;;;3.92;1.33;;;;;;;-1.35;97.36;99840.25;5083835;28;20028;-86
2022/04/02 02:10:32;;;;;;;8.32;1.40;;;;;;;-1.32;97.64;99848.16;5083325;28;20435;-85
2022/04/02 02:12:58;;;;;;;2.67;1.20;;;;;;;-1.36;97.34;99846.34;5081590;28;20033;-87
2022/04/02 02:15:25;;;;;;;2.90;1.40;;;;;;;-1.34;96.58;99852.50;5081921;28;20416;-86
2022/04/02 02:17:50;;;;;;;3.40;1.50;;;;;;;-1.42;97.15;99856.78;5081351;28;20496;-85
2022/04/02 02:20:18;;;;;;;3.60;1.75;;;;;;;-1.44;98.63;99858.50;5083828;28;20020;-86
2022/04/02 02:22:45;;;;;;;2.92;1.70;;;;;;;-1.46;97.97;99869.81;5085303;28;20021;-85
2022/04/02 02:25:12;;;;;;;3.30;1.60;;;;;;;-1.37;96.49;99862.94;5085546;28;20062;-85
2022/04/02 02:27:40;;;;;;;2.28;1.20;;;;;;;-1.39;96.33;99872.53;5085243;28;20417;-84
2022/04/02 02:30:08;;;;;;;3.88;1.27;;;;;;;-1.44;97.92;99869.84;5076496;28;20113;-84
2022/04/02 02:32:36;;;;;;;5.30;1.52;;;;;;;-1.47;98.47;99870.66;5079047;28;20385;-84
2022/04/02 02:37:50;;;;;;;5.85;1.50;;;;;;;-1.44;96.68;99874.22;5083063;28;20052;-84
2022/04/02 02:40:16;;;;;;;2.50;1.20;;;;;;;-1.44;97.22;99864.59;5082036;28;20393;-83
2022/04/02 02:42:43;;;;;;;5.25;1.40;;;;;;;-1.39;97.66;99869.91;5082347;28;20040;-83
2022/04/02 02:45:10;;;;;;;2.95;1.00;;;;;;;-1.41;96.15;99877.72;5083952;28;20031;-83
2022/04/02 02:47:36;;;;;;;3.65;1.80;;;;;;;-1.39;97.16;99883.00;5085559;28;20031;-83
2022/04/02 02:50:02;;;;;;;2.65;1.50;;;;;;;-1.35;96.61;99879.56;5083898;28;20042;-84
2022/04/02 02:52:28;;;;;;;3.15;1.70;;;;;;;-1.47;97.62;99880.28;5083344;28;20052;-83
2022/04/02 02:54:53;;;;;;;4.32;1.60;;;;;;;-1.42;97.25;99893.44;5082752;28;20024;-85
2022/04/02 02:57:19;;;;;;;4.25;1.65;;;;;;;-1.41;97.11;99892.56;5102781;22;20040;-72
2022/04/02 02:59:44;;;;;;;3.45;1.58;;;;;;;-1.42;97.33;99894.31;5074214;28;20020;-72
2022/04/02 03:02:11;;;;;;;3.90;1.70;;;;;;;-1.37;96.77;99895.28;5074280;28;20016;-74
2022/04/02 03:04:37;;;;;;;4.00;1.48;;;;;;;-1.37;97.38;99895.28;5074255;28;20422;-72
2022/04/02 03:07:02;;;;;;;3.30;1.40;;;;;;;-1.44;99.08;99895.16;5075541;28;20051;-73
2022/04/02 03:09:27;;;;;;;3.35;1.63;;;;;;;-1.44;98.52;99895.16;5075428;28;20037;-72
2022/04/02 03:11:53;;;;;;;4.20;1.70;;;;;;;-1.42;97.57;99898.69;5074175;28;20027;-72
2022/04/02 03:14:19;;;;;;;4.18;1.52;;;;;;;-1.40;98.09;99899.56;5075350;28;20020;-73
2022/04/02 03:16:44;;;;;;;3.17;1.50;;;;;;;-1.37;97.77;99891.75;5074180;28;20549;-74
2022/04/02 03:19:09;;;;;;;3.58;1.55;;;;;;;-1.33;95.84;99904.03;5075372;28;20047;-74
2022/04/02 03:21:34;;;;;;;3.35;1.80;;;;;;;-1.30;96.05;99908.44;5075306;28;20446;-74
2022/04/02 03:24:01;;;;;;;4.05;1.70;;;;;;;-1.40;97.00;99903.09;5075606;28;20024;-74
2022/04/02 03:26:26;;;;;;;3.47;1.73;;;;;;;-1.41;96.29;99910.91;5075202;28;20021;-73
2022/04/02 03:28:52;;;;;;;3.40;1.63;;;;;;;-1.37;96.79;99907.47;5075136;28;20061;-72
2022/04/02 03:31:18;;;;;;;3.33;1.73;;;;;;;-1.35;95.58;99901.41;5074978;28;20469;-72
2022/04/02 03:33:43;;;;;;;5.20;1.67;;;;;;;-1.36;95.81;99903.97;5074994;28;20025;-72
2022/04/02 03:36:10;;;;;;;4.43;1.52;;;;;;;-1.40;95.55;99910.06;5073761;28;20036;-72
2022/04/02 03:38:37;;;;;;;5.57;1.67;;;;;;;-1.35;96.36;99911.00;5074920;28;20104;-72
2022/04/02 03:41:04;;;;;;;3.80;1.83;;;;;;;-1.33;94.74;99909.25;5074860;28;20025;-72
2022/04/02 03:43:30;;;;;;;5.38;1.63;;;;;;;-1.40;95.61;99913.56;5075064;28;20031;-72
2022/04/02 03:47:08;;;;;;;4.43;1.70;;;;;;;-1.40;94.91;99916.19;5074793;28;20034;-72
2022/04/02 03:48:41;;;;;;;2.97;1.80;;;;;;;-1.39;93.93;99917.06;5074601;28;20037;-73
2022/04/02 03:51:06;;;;;;;3.58;1.98;;;;;;;-1.34;93.63;99928.47;5074676;28;20120;-72
2022/04/02 03:53:32;;;;;;;4.60;1.67;;;;;;;-1.39;96.31;99924.94;5074653;28;20435;-72
2022/04/02 03:55:57;;;;;;;2.80;1.50;;;;;;;-1.32;94.75;99923.25;5074412;28;20020;-72
2022/04/02 03:58:22;;;;;;;4.03;1.60;;;;;;;-1.35;93.39;99932.84;5075028;28;20020;-73
2022/04/02 04:00:47;;;;;;;2.55;1.55;;;;;;;-1.32;93.89;99925.88;5074841;28;20039;-73
2022/04/02 04:03:13;;;;;;;5.38;2.05;;;;;;;-1.28;93.28;99933.78;5073194;28;20055;-72
2022/04/02 04:05:38;;;;;;;2.60;1.52;;;;;;;-1.34;92.66;99938.97;5073206;28;20032;-73
2022/04/02 04:08:04;;;;;;;5.35;1.95;;;;;;;-1.32;94.06;99942.47;5074632;28;20554;-72
2022/04/02 04:10:29;;;;;;;3.90;1.52;;;;;;;-1.33;94.12;99940.69;5073941;28;20031;-72
2022/04/02 04:12:55;;;;;;;3.45;1.48;;;;;;;-1.34;94.02;99941.59;5074430;28;20434;-74
2022/04/02 04:15:20;;;;;;;4.43;1.40;;;;;;;-1.31;93.55;99936.34;5074124;28;20024;-73
2022/04/02 04:17:46;;;;;;;3.85;2.00;;;;;;;-1.37;93.10;99936.28;5074137;28;20024;-72
2022/04/02 04:20:11;;;;;;;6.32;1.58;;;;;;;-1.29;94.21;99942.50;5074185;28;20020;-72
2022/04/02 04:22:37;;;;;;;7.05;2.00;;;;;;;-1.29;91.06;99944.25;5073978;28;20055;-72
2022/04/02 04:25:03;;;;;;;3.63;1.38;;;;;;;-1.32;93.86;99945.09;5073918;28;20016;-72
2022/04/02 04:27:28;;;;;;;5.82;1.77;;;;;;;-1.32;94.13;99942.47;5072648;28;20023;-72
2022/04/02 04:29:53;;;;;;;2.97;1.35;;;;;;;-1.25;93.18;99944.31;5073856;28;20099;-72
2022/04/02 04:32:18;;;;;;;3.85;1.60;;;;;;;-1.32;93.23;99945.09;5073751;28;20055;-72
2022/04/02 04:34:44;;;;;;;4.45;1.90;;;;;;;-1.34;94.97;99938.97;5073720;28;20473;-72
2022/04/02 04:37:09;;;;;;;2.97;1.73;;;;;;;-1.32;95.41;99942.47;5073933;28;20024;-74
2022/04/02 04:39:34;;;;;;;3.75;1.70;;;;;;;-1.27;94.61;99945.16;5074163;28;20020;-72
2022/04/02 04:42:00;;;;;;;5.43;1.60;;;;;;;-1.32;94.97;99952.97;5073962;28;20048;-72
2022/04/02 04:44:25;;;;;;;3.85;1.70;;;;;;;-1.25;94.83;99954.78;5073685;28;20025;-72
2022/04/02 04:46:50;;;;;;;4.90;1.60;;;;;;;-1.34;95.62;99957.31;5072329;28;20047;-72
2022/04/02 04:49:16;;;;;;;3.33;1.52;;;;;;;-1.32;96.34;99962.53;5073912;28;20036;-72
2022/04/02 04:51:42;;;;;;;4.03;1.77;;;;;;;-1.32;97.34;99968.69;5073497;28;20020;-72
2022/04/02 04:54:07;;;;;;;6.00;1.80;;;;;;;-1.29;96.45;99963.44;5073541;28;20029;-71
2022/04/02 04:56:32;;;;;;;7.50;2.35;;;;;;;-1.26;97.54;99976.59;5073385;28;20119;-72
2022/04/02 04:58:58;;;;;;;4.45;1.70;;;;;;;-1.36;97.97;99974.72;5073426;28;20025;-72
2022/04/02 05:01:23;;;;;;;3.42;1.70;;;;;;;-1.29;98.40;99979.16;5072156;28;20021;-73
2022/04/02 05:03:48;;;;;;;3.63;1.77;;;;;;;-1.36;99.14;99974.72;5071972;28;20392;-73
2022/04/02 05:06:14;;;;;;;5.07;1.77;;;;;;;-1.32;97.29;99976.53;5073378;28;20071;-73
2022/04/02 05:08:39;;;;;;;2.53;1.50;;;;;;;-1.28;98.41;99980.94;5073476;28;20035;-74
2022/04/02 05:11:05;;;;;;;2.97;1.63;;;;;;;-1.31;98.48;99974.78;5073243;28;20105;-74
2022/04/02 05:13:30;;;;;;;4.43;1.95;;;;;;;-1.26;98.64;99987.06;5073647;28;20028;-75
2022/04/02 05:15:56;;;;;;;2.83;1.42;;;;;;;-1.32;99.00;99992.25;5073579;28;20039;-75
2022/04/02 05:18:21;;;;;;;5.20;1.55;;;;;;;-1.32;98.04;99988.75;5072065;28;20024;-76
2022/04/02 05:20:47;;;;;;;3.38;1.60;;;;;;;-1.32;97.57;99992.25;5073156;28;20033;-76
2022/04/02 05:23:12;;;;;;;4.95;1.67;;;;;;;-1.30;96.49;99998.38;5072015;28;20044;-75
2022/04/02 05:25:38;;;;;;;3.75;1.90;;;;;;;-1.30;96.45;99994.88;5073450;28;20055;-75
2022/04/02 05:28:07;;;;;;;4.80;1.80;;;;;;;-1.33;96.41;99994.84;5073431;28;20025;-75
2022/04/02 05:30:39;;;;;;;6.55;1.98;;;;;;;-1.37;96.95;100000.06;5071871;28;20017;-74
2022/04/02 05:33:04;;;;;;;4.00;1.67;;;;;;;-1.37;96.39;100001.78;5071731;28;20020;-74
2022/04/02 05:35:29;;;;;;;3.70;1.85;;;;;;;-1.32;95.94;100010.59;5073230;28;20020;-74
2022/04/02 05:37:55;;;;;;;4.55;1.90;;;;;;;-1.24;95.19;100011.56;5071774;28;20154;-75
2022/04/02 05:40:20;;;;;;;3.22;1.40;;;;;;;-1.23;96.26;100009.81;5073150;28;20044;-74
2022/04/02 05:42:45;;;;;;;4.63;1.65;;;;;;;-1.28;95.75;100012.38;5073003;28;20491;-74
2022/04/02 05:45:12;;;;;;;4.35;1.85;;;;;;;-1.31;97.32;100007.09;5072924;28;20400;-74
2022/04/02 05:47:45;;;;;;;4.28;1.90;;;;;;;-1.25;95.64;100015.06;5071711;28;20028;-74
2022/04/02 05:50:11;;;;;;;;;;;;;;;-1.33;95.65;100023.66;5073486;28;20021;-74
2022/04/02 05:52:37;;;;;;;2.72;1.65;;;;;;;-1.35;95.23;100029.75;5073153;28;19912;-74
2022/04/02 05:55:05;;;;;;;3.60;1.63;;;;;;;-1.31;95.18;100027.16;5071529;28;20420;-74
2022/04/02 05:57:30;;;;;;;5.97;1.83;;;;;;;-1.25;95.10;100030.78;5071394;28;20477;-74
2022/04/02 05:59:56;;;;;;;3.25;1.70;;;;;;;-1.29;96.11;100041.19;5072770;28;20025;-74
2022/04/02 06:02:21;;;;;;;4.78;1.60;;;;;;;-1.25;95.45;100043.88;5072799;28;20052;-74
2022/04/02 06:04:46;;;;;;;4.22;1.88;;;;;;;-1.22;97.37;100043.03;5071318;28;20067;-74
2022/04/02 06:07:12;;;;;;;4.30;1.60;;;;;;;-1.24;96.96;100043.00;5072975;28;20028;-74
2022/04/02 06:09:37;;;;;;;5.70;1.90;;;;;;;-1.19;97.87;100042.22;5071435;28;20021;-75
2022/04/02 06:12:03;;;;;;;5.20;1.73;;;;;;;-1.24;97.02;100045.63;5071317;28;20550;-74
2022/04/02 06:14:28;;;;;;;4.55;2.25;;;;;;;-1.22;98.50;100047.41;5071289;28;20024;-74
2022/04/02 06:16:53;;;;;;;6.35;2.13;;;;;;;-1.18;98.97;100050.06;5072895;28;20029;-75
2022/04/02 06:19:19;;;;;;;4.30;1.73;;;;;;;-1.12;98.62;100051.91;5072595;28;20478;-74
2022/04/02 06:21:45;;;;;;;5.57;1.92;;;;;;;-1.06;99.11;100062.50;5071359;28;20020;-74
2022/04/02 06:24:10;;;;;;;4.25;1.90;;;;;;;-1.13;97.63;100068.47;5072724;28;20032;-75
2022/04/02 06:26:35;;;;;;;4.30;2.00;;;;;;;-1.09;99.09;100064.19;5072574;28;20167;-75
2022/04/02 06:29:01;;;;;;;5.55;1.92;;;;;;;-1.04;100.00;100080.84;5072755;28;20024;-75
2022/04/02 06:31:26;;;;;;;8.18;2.33;;;;;;;-1.03;100.00;100069.53;5072457;28;20074;-75
2022/04/02 06:33:51;;;;;;;3.58;2.00;;;;;;;-1.06;100.00;100075.59;5074052;28;20020;-75
2022/04/02 06:36:17;;;;;;;4.53;2.58;;;;;;;-0.93;100.00;100079.25;5076092;28;20036;-75
2022/04/02 06:38:43;;;;;;;5.72;2.50;;;;;;;-0.91;100.00;100076.66;5076031;28;20051;-75
2022/04/02 06:41:08;;;;;;;6.07;2.47;;;;;;;-0.88;100.00;100079.34;5076238;28;20099;-75
2022/04/02 06:43:33;;;;;;;7.20;2.53;;;;;;;-0.85;100.00;100079.34;5075921;28;20045;-75
2022/04/02 06:45:58;;;;;;;5.70;2.75;;;;;;;-0.82;100.00;100089.00;5074516;28;20035;-75
2022/04/02 06:48:24;;;;;;;5.25;2.58;;;;;;;-0.74;100.00;100091.72;5074643;28;20024;-74
2022/04/02 06:50:49;;;;;;;5.10;2.35;;;;;;;-0.72;100.00;100084.78;5075845;28;20508;-74
2022/04/02 06:53:14;;;;;;;6.47;3.33;;;;;;;-0.74;100.00;100087.38;5075729;28;20024;-75
2022/04/02 06:55:40;;;;;;;5.30;2.70;;;;;;;-0.72;100.00;100092.66;5075637;28;20485;-74
2022/04/02 06:58:06;;;;;;;5.10;2.85;;;;;;;-0.70;100.00;100083.06;5074355;28;20024;-75
2022/04/02 07:00:31;;;;;;;4.45;2.47;;;;;;;-0.68;100.00;100086.56;5075717;28;20091;-74
2022/04/02 07:02:56;;;;;;;7.20;2.78;;;;;;;-0.61;100.00;100085.78;5075925;28;20028;-75
2022/04/02 07:05:22;;;;;;;8.85;3.25;;;;;;;-0.60;100.00;100094.53;5075768;28;20099;-75
2022/04/02 07:07:49;;;;;;;7.10;3.25;;;;;;;-0.57;100.00;100099.84;5075685;28;20118;-75
2022/04/02 07:10:14;;;;;;;6.93;2.63;;;;;;;-0.54;100.00;100099.00;5075580;28;20103;-75
2022/04/02 07:12:40;;;;;;;8.20;3.05;;;;;;;-0.57;100.00;100105.09;5075471;28;20124;-75
2022/04/02 07:15:07;;;;;;;8.18;3.63;;;;;;;-0.50;100.00;100106.91;5075356;28;20021;-74
2022/04/02 07:17:32;;;;;;;6.82;3.38;;;;;;;-0.49;100.00;100105.19;5075568;28;20386;-75
2022/04/02 07:19:59;;;;;;;4.90;3.15;;;;;;;-0.44;100.00;100111.38;5075339;28;20031;-75
2022/04/02 07:22:25;;;;;;;7.25;3.25;;;;;;;-0.38;100.00;100106.19;5074010;28;20108;-75
2022/04/02 07:24:53;;;;;;;7.00;3.20;;;;;;;-0.43;100.00;100112.22;5073914;28;20031;-75
2022/04/02 07:27:24;;;;;;;7.45;3.42;;;;;;;-0.40;100.00;100113.16;5075428;28;20490;-75
2022/04/02 07:29:52;;;;;;;6.47;3.40;;;;;;;-0.32;100.00;100112.38;5075473;28;20020;-75
2022/04/02 07:32:18;;;;;;;11.18;3.60;;;;;;;-0.33;100.00;100113.25;5074922;28;20077;-75
2022/04/02 07:34:43;;;;;;;8.05;3.63;;;;;;;-0.19;100.00;100109.03;5073671;28;20020;-75
2022/04/02 07:37:24;;;;;;;5.68;3.50;;;;;;;-0.24;100.00;100121.22;5073771;28;20116;-75
2022/04/02 07:40:02;;;;;;;6.90;3.20;;;;;;;-0.20;100.00;100125.63;5073738;28;20025;-75
2022/04/02 07:42:37;;;;;;;8.52;3.78;;;;;;;-0.16;100.00;100127.44;5075275;28;20021;-75
2022/04/02 07:45:08;;;;;;;5.88;2.75;;;;;;;-0.12;100.00;100134.47;5074173;28;20074;-75
2022/04/02 07:47:38;;;;;;;7.18;3.30;;;;;;;-0.06;100.00;100132.78;5073463;28;20024;-75
2022/04/02 07:50:07;;;;;;;5.70;3.25;;;;;;;0.02;100.00;100138.13;5073388;28;20119;-75
2022/04/02 07:52:36;;;;;;;7.97;3.55;;;;;;;-0.02;100.00;100130.22;5074948;28;20031;-75
2022/04/02 07:55:05;;;;;;;6.60;3.17;;;;;;;-0.03;98.84;100138.97;5074573;28;20026;-75
2022/04/02 07:57:43;;;;;;;7.45;3.33;;;;;;;0.02;98.69;100148.63;5073053;28;20043;-74
2022/04/02 08:00:12;;;;;;;6.90;3.30;;;;;;;0.15;98.63;100147.03;5073099;28;20020;-74
2022/04/02 08:02:43;;;;;;;5.93;3.08;;;;;;;0.22;99.09;100143.59;5074459;28;20016;-74
2022/04/02 08:05:16;;;;;;;6.10;2.80;;;;;;;0.23;98.86;100150.63;5074390;28;20060;-75
2022/04/02 08:07:44;;;;;;;7.13;3.50;;;;;;;0.25;99.81;100146.25;5074422;28;20026;-74
2022/04/02 08:10:12;;;;;;;6.03;2.83;;;;;;;0.19;97.00;100148.81;5074272;28;20060;-75
2022/04/02 08:12:39;;;;;;;6.22;2.45;;;;;;;0.23;95.39;100148.00;5072775;28;20039;-75
2022/04/02 08:15:09;;;;;;;5.25;2.80;;;;;;;0.28;97.73;100159.44;5073995;28;20016;-74
2022/04/02 08:17:37;;;;;;;6.15;2.95;;;;;;;0.41;97.42;100154.28;5072861;28;20066;-74
2022/04/02 08:20:03;;;;;;;7.15;3.05;;;;;;;0.39;97.68;100161.25;5074116;28;20024;-75
2022/04/02 08:22:28;;;;;;;5.55;2.78;;;;;;;0.39;97.44;100150.75;5074009;28;20071;-75
2022/04/02 08:24:56;;;;;;;4.47;2.78;;;;;;;0.47;98.31;100156.97;5072611;28;20024;-76
2022/04/02 08:27:58;;;;;;;6.72;3.25;;;;;;;0.45;96.01;100166.56;5074107;28;20047;-75
2022/04/02 08:31:09;;;;;;;6.03;2.78;;;;;;;0.53;96.04;100164.91;5042606;28;20039;-75
2022/04/02 08:33:48;;;;;;;5.13;2.65;;;;;;;0.50;94.03;100172.75;5064150;28;20052;-76
2022/04/02 08:36:27;;;;;;;6.53;2.80;;;;;;;0.74;97.45;100179.13;5073798;28;20082;-75
2022/04/02 08:39:03;;;;;;;4.75;2.83;;;;;;;0.96;97.86;100176.66;5073951;28;20026;-76
2022/04/02 08:41:34;;;;;;;4.60;2.75;;;;;;;0.97;95.09;100175.81;5072306;28;20389;-76
2022/04/02 08:44:21;;;;;;;5.68;2.80;;;;;;;1.06;98.10;100181.97;5073766;28;20024;-76
2022/04/02 08:47:17;;;;;;;5.05;2.80;;;;;;;0.84;96.05;100173.94;5073667;28;20020;-75
2022/04/02 08:49:58;;;;;;;4.85;2.90;;;;;;;0.77;98.32;100189.63;5073429;28;20501;-75
2022/04/02 08:52:48;;;;;;;9.23;3.92;;;;;;;0.88;100.00;100195.00;5073639;28;20077;-75
2022/04/02 08:55:17;;;;;;;6.10;3.63;;;;;;;0.95;100.00;100197.69;5072103;28;20048;-75
2022/04/02 08:57:54;;;;;;;8.23;3.35;;;;;;;0.88;100.00;100192.38;5119097;22;20045;-84
2022/04/02 09:00:25;;;;;;;8.15;3.85;;;;;;;0.83;100.00;100203.69;5109935;28;20049;-85
2022/04/02 09:02:53;;;;;;;6.78;3.40;;;;;;;0.86;100.00;100194.09;5108468;28;20024;-84
2022/04/02 09:05:24;;;;;;;8.10;3.85;;;;;;;0.96;100.00;100195.06;5108637;28;20088;-85
2022/04/02 09:07:49;;;;;;;8.55;3.47;;;;;;;1.04;100.00;100203.00;5092715;28;20020;-84
2022/04/02 09:11:04;;;;;;;8.50;4.03;;;;;;;1.14;100.00;100209.22;5092339;28;20036;-84
2022/04/02 09:13:56;;;;;;;;;;;;;;;1.02;100.00;100201.25;5090561;28;20277;-83
2022/04/02 09:16:27;;;;;;;9.88;3.78;;;;;;;1.07;100.00;100210.03;5092034;28;19909;-85
2022/04/02 09:19:37;;;;;;;6.15;3.40;;;;;;;1.05;100.00;100217.94;5093965;28;20066;-86
2022/04/02 09:22:26;;;;;;;7.63;3.78;;;;;;;0.88;100.00;100217.78;5093648;28;20021;-86
2022/04/02 09:24:58;;;;;;;8.30;4.18;;;;;;;0.89;100.00;100220.44;5093412;28;20028;-87
2022/04/02 09:27:48;;;;;;;9.20;3.67;;;;;;;0.94;100.00;100227.47;5093906;28;20088;-85
2022/04/02 09:30:39;;;;;;;7.97;3.65;;;;;;;1.08;100.00;100222.34;5094082;28;20058;-84
2022/04/02 09:33:21;;;;;;;8.30;3.63;;;;;;;1.31;100.00;100226.91;5055307;28;20044;-84
2022/04/02 09:36:12;;;;;;;9.93;4.45;;;;;;;1.16;100.00;100231.16;5095260;28;20016;-83
2022/04/02 09:38:54;;;;;;;9.82;3.95;;;;;;;1.17;100.00;100229.41;5092423;28;20024;-83
2022/04/02 09:41:42;;;;;;;7.47;4.00;;;;;;;1.14;100.00;100235.53;5092528;28;20027;-86
2022/04/02 09:44:29;;;;;;;7.65;3.95;;;;;;;0.93;100.00;100236.25;5093136;28;20395;-87
2022/04/02 09:47:04;;;;;;;7.10;3.85;;;;;;;1.02;100.00;100240.69;5092834;28;20032;-84
2022/04/02 09:50:21;;;;;;;6.25;3.58;;;;;;;0.98;100.00;100235.41;5092454;28;20088;-84
2022/04/02 09:53:04;;;;;;;7.88;3.80;;;;;;;0.84;100.00;100237.03;5060954;28;20031;-85
2022/04/02 09:55:55;;;;;;;6.25;4.15;;;;;;;0.95;100.00;100230.13;5093969;28;20025;-85
2022/04/02 09:58:42;;;;;;;7.75;3.50;;;;;;;0.94;100.00;100233.63;5093792;28;20092;-83
2022/04/02 10:01:09;;;;;;;6.18;3.53;;;;;;;0.97;100.00;100233.66;5092549;28;20071;-83
2022/04/02 10:03:58;;;;;;;8.77;4.68;;;;;;;1.09;100.00;100237.22;5090172;28;20023;-82
2022/04/02 10:06:36;;;;;;;8.30;3.45;;;;;;;1.02;100.00;100240.69;5089697;28;20029;-83
2022/04/02 10:09:06;;;;;;;6.88;3.60;;;;;;;0.69;100.00;100238.66;5093575;28;20024;-82
2022/04/02 10:11:34;;;;;;;9.10;3.97;;;;;;;0.75;100.00;100233.44;5095311;28;20051;-82
2022/04/02 10:14:02;;;;;;;7.00;3.65;;;;;;;0.72;100.00;100238.66;5097670;28;20016;-82
2022/04/02 10:16:28;;;;;;;9.75;4.07;;;;;;;0.84;100.00;100239.66;5095745;28;20034;-82
2022/04/02 10:18:55;;;;;;;8.93;3.67;;;;;;;0.75;100.00;100229.91;5096380;28;20054;-82
2022/04/02 10:21:21;;;;;;;7.70;4.15;;;;;;;0.67;100.00;100229.88;5097505;28;20016;-85
2022/04/02 10:23:55;;;;;;;5.50;3.20;;;;;;;0.80;100.00;100230.00;5097084;28;20007;-84
2022/04/02 10:26:23;;;;;;;7.05;4.15;;;;;;;0.93;100.00;100229.22;5097988;28;20020;-85
2022/04/02 10:28:57;;;;;;;7.88;4.38;;;;;;;1.09;100.00;100226.72;5097694;28;20031;-84
2022/04/02 10:31:39;;;;;;;;;;;;;;;1.38;100.00;100230.44;5097891;28;20393;-86
2022/04/02 10:34:38;;;;;;;10.05;3.63;;;;;;;1.48;100.00;100224.38;5098083;28;19927;-85
2022/04/02 10:37:13;;;;;;;7.43;4.28;;;;;;;1.52;97.92;100225.28;5074246;28;20028;-84
2022/04/02 10:39:52;;;;;;;5.70;3.53;;;;;;;1.55;98.61;100220.91;5095651;28;20016;-83
2022/04/02 10:42:19;;;;;;;6.35;3.47;;;;;;;1.36;94.02;100227.81;5095659;28;20099;-82
2022/04/02 10:44:57;;;;;;;7.07;3.78;;;;;;;1.47;94.53;100233.13;5095857;28;20032;-83
2022/04/02 10:47:27;;;;;;;6.40;3.40;;;;;;;1.58;93.32;100227.94;5097003;28;20027;-84
2022/04/02 10:50:00;;;;;;;6.03;3.60;;;;;;;1.63;94.07;100227.97;5097713;28;20013;-84
2022/04/02 10:52:27;;;;;;;8.75;3.75;;;;;;;1.66;94.29;100223.59;5097253;28;20000;-86
2022/04/02 10:54:52;;;;;;;9.23;3.15;;;;;;;1.77;89.44;100220.16;5097014;28;20032;-86
2022/04/02 10:57:18;;;;;;;5.63;3.33;;;;;;;1.82;89.05;100226.31;5097782;28;20039;-86
2022/04/02 10:59:46;;;;;;;6.88;3.25;;;;;;;1.83;86.23;100220.16;5094898;28;20048;-84
2022/04/02 11:02:22;;;;;;;9.77;3.58;;;;;;;2.02;90.06;100225.53;5096730;28;20485;-86
2022/04/02 11:05:02;;;;;;;4.32;2.80;;;;;;;2.27;89.75;100222.13;5095746;28;20047;-83
2022/04/02 11:07:37;;;;;;;5.25;2.80;;;;;;;2.30;86.29;100220.38;5098326;28;20032;-85
2022/04/02 11:10:04;;;;;;;6.03;3.03;;;;;;;2.25;87.06;100222.09;5097831;28;20011;-84
2022/04/02 11:12:39;;;;;;;4.72;2.53;;;;;;;2.17;82.59;100224.72;5097545;28;20025;-85
2022/04/02 11:15:09;;;;;;;5.55;2.95;;;;;;;2.21;80.04;100220.34;5098799;28;20035;-86
2022/04/02 11:17:43;;;;;;;4.60;2.83;;;;;;;2.21;79.23;100215.06;5096951;28;20045;-85
2022/04/02 11:20:10;;;;;;;6.25;2.60;;;;;;;2.15;80.57;100221.19;5097382;28;20031;-85
2022/04/02 11:22:51;;;;;;;9.45;2.50;;;;;;;2.09;76.60;100224.69;5097532;28;20099;-85
2022/04/02 11:25:29;;;;;;;5.45;2.20;;;;;;;2.08;75.94;100233.47;5097481;28;20019;-85
2022/04/02 11:28:10;;;;;;;5.05;2.70;;;;;;;2.06;76.28;100229.94;5097617;28;20116;-86
2022/04/02 11:30:47;;;;;;;3.65;2.30;;;;;;;2.05;75.01;100241.34;5096455;28;20028;-84
2022/04/02 11:33:18;;;;;;;3.67;2.38;;;;;;;2.15;75.70;100226.47;5097509;28;20461;-83
2022/04/02 11:35:47;;;;;;;5.97;2.70;;;;;;;2.66;78.70;100223.09;5096780;28;20055;-85
2022/04/02 11:38:24;;;;;;;5.72;2.53;;;;;;;2.83;73.24;100218.72;5096966;28;20042;-85
2022/04/02 11:41:30;;;;;;;3.88;2.30;;;;;;;3.13;74.40;100222.22;5096582;28;20024;-84
2022/04/02 11:44:16;;;;;;;4.10;2.13;;;;;;;3.34;66.75;100228.38;5097011;28;20021;-82
2022/04/02 11:46:57;;;;;;;2.97;2.00;;;;;;;3.54;66.81;100216.91;5097221;28;20025;-84